Aviation Digital Data Service (ADDS)

Output produced by TAFs form (2343 UTC 18 July 2018)
found at http://www.aviationweather.gov/adds/tafs/
 
RJOT 182300Z 05003KT 340V090 8000 NSC 29/25 Q1012
TAF RJOT 182309Z 1900/2006 06007KT 9999 FEW030